sensor_id;sensor_type;location;lat;lon;timestamp;P1;durP1;ratioP1;P2;durP2;ratioP2
789;SDS011;378;48.844;9.156;2022-08-05T00:01:36;9.05;;;3.10;;
789;SDS011;378;48.844;9.156;2022-08-05T00:04:04;7.50;;;2.90;;
789;SDS011;378;48.844;9.156;2022-08-05T00:06:31;4.03;;;2.70;;
789;SDS011;378;48.844;9.156;2022-08-05T00:08:58;8.70;;;2.90;;
789;SDS011;378;48.844;9.156;2022-08-05T00:11:25;10.18;;;2.95;;
789;SDS011;378;48.844;9.156;2022-08-05T00:13:53;7.43;;;3.08;;
789;SDS011;378;48.844;9.156;2022-08-05T00:16:20;3.88;;;2.90;;
789;SDS011;378;48.844;9.156;2022-08-05T00:18:48;6.30;;;3.20;;
789;SDS011;378;48.844;9.156;2022-08-05T00:21:16;7.63;;;3.33;;
789;SDS011;378;48.844;9.156;2022-08-05T00:23:46;6.53;;;3.15;;
789;SDS011;378;48.844;9.156;2022-08-05T00:26:13;8.02;;;3.10;;
789;SDS011;378;48.844;9.156;2022-08-05T00:28:41;5.03;;;3.28;;
789;SDS011;378;48.844;9.156;2022-08-05T00:31:08;3.35;;;2.85;;
789;SDS011;378;48.844;9.156;2022-08-05T00:33:35;7.03;;;3.13;;
789;SDS011;378;48.844;9.156;2022-08-05T00:36:02;7.28;;;3.35;;
789;SDS011;378;48.844;9.156;2022-08-05T00:38:31;8.73;;;2.97;;
789;SDS011;378;48.844;9.156;2022-08-05T00:40:58;3.40;;;2.75;;
789;SDS011;378;48.844;9.156;2022-08-05T00:43:25;4.25;;;2.60;;
789;SDS011;378;48.844;9.156;2022-08-05T00:45:53;4.43;;;2.95;;
789;SDS011;378;48.844;9.156;2022-08-05T00:48:20;3.05;;;2.40;;
789;SDS011;378;48.844;9.156;2022-08-05T00:50:49;8.95;;;2.15;;
789;SDS011;378;48.844;9.156;2022-08-05T00:53:18;6.30;;;2.38;;
789;SDS011;378;48.844;9.156;2022-08-05T00:55:47;4.35;;;2.45;;
789;SDS011;378;48.844;9.156;2022-08-05T00:58:14;4.38;;;2.13;;
789;SDS011;378;48.844;9.156;2022-08-05T01:00:42;11.63;;;2.33;;
789;SDS011;378;48.844;9.156;2022-08-05T01:03:09;4.22;;;2.20;;
789;SDS011;378;48.844;9.156;2022-08-05T01:05:37;12.57;;;2.08;;
789;SDS011;378;48.844;9.156;2022-08-05T01:08:04;5.57;;;2.28;;
789;SDS011;378;48.844;9.156;2022-08-05T01:10:34;6.60;;;2.25;;
789;SDS011;378;48.844;9.156;2022-08-05T01:13:07;6.80;;;2.08;;
789;SDS011;378;48.844;9.156;2022-08-05T01:15:41;6.38;;;2.40;;
789;SDS011;378;48.844;9.156;2022-08-05T01:18:13;8.05;;;2.28;;
789;SDS011;378;48.844;9.156;2022-08-05T01:21:03;11.15;;;2.13;;
789;SDS011;378;48.844;9.156;2022-08-05T01:24:00;6.45;;;1.95;;
789;SDS011;378;48.844;9.156;2022-08-05T01:26:43;6.97;;;2.22;;
789;SDS011;378;48.844;9.156;2022-08-05T01:29:26;5.85;;;1.95;;
789;SDS011;378;48.844;9.156;2022-08-05T01:31:58;3.33;;;1.95;;
789;SDS011;378;48.844;9.156;2022-08-05T01:34:29;5.63;;;2.20;;
789;SDS011;378;48.844;9.156;2022-08-05T01:37:01;5.90;;;2.13;;
789;SDS011;378;48.844;9.156;2022-08-05T01:39:30;4.38;;;2.15;;
789;SDS011;378;48.844;9.156;2022-08-05T01:41:59;9.80;;;2.20;;
789;SDS011;378;48.844;9.156;2022-08-05T01:44:28;5.40;;;2.03;;
789;SDS011;378;48.844;9.156;2022-08-05T01:46:56;6.00;;;2.22;;
789;SDS011;378;48.844;9.156;2022-08-05T01:49:23;4.25;;;1.90;;
789;SDS011;378;48.844;9.156;2022-08-05T01:51:53;4.97;;;2.17;;
789;SDS011;378;48.844;9.156;2022-08-05T01:54:28;6.57;;;2.13;;
789;SDS011;378;48.844;9.156;2022-08-05T01:56:57;7.07;;;2.00;;
789;SDS011;378;48.844;9.156;2022-08-05T01:59:27;7.32;;;1.90;;
789;SDS011;378;48.844;9.156;2022-08-05T02:01:59;5.15;;;1.90;;
789;SDS011;378;48.844;9.156;2022-08-05T02:04:27;8.35;;;2.33;;
789;SDS011;378;48.844;9.156;2022-08-05T02:06:55;10.18;;;2.17;;
789;SDS011;378;48.844;9.156;2022-08-05T02:09:23;5.28;;;2.03;;
789;SDS011;378;48.844;9.156;2022-08-05T02:11:50;4.82;;;2.30;;
789;SDS011;378;48.844;9.156;2022-08-05T02:14:25;5.90;;;2.20;;
789;SDS011;378;48.844;9.156;2022-08-05T02:16:59;11.18;;;2.33;;
789;SDS011;378;48.844;9.156;2022-08-05T02:19:30;12.88;;;2.38;;
789;SDS011;378;48.844;9.156;2022-08-05T02:22:01;5.90;;;2.42;;
789;SDS011;378;48.844;9.156;2022-08-05T02:24:35;6.13;;;2.47;;
789;SDS011;378;48.844;9.156;2022-08-05T02:27:04;12.32;;;2.33;;
789;SDS011;378;48.844;9.156;2022-08-05T02:29:35;7.25;;;2.35;;
789;SDS011;378;48.844;9.156;2022-08-05T02:32:04;7.00;;;2.30;;
789;SDS011;378;48.844;9.156;2022-08-05T02:34:35;8.85;;;2.60;;
789;SDS011;378;48.844;9.156;2022-08-05T02:37:03;6.32;;;2.28;;
789;SDS011;378;48.844;9.156;2022-08-05T02:39:35;9.90;;;2.50;;
789;SDS011;378;48.844;9.156;2022-08-05T02:42:04;8.30;;;2.67;;
789;SDS011;378;48.844;9.156;2022-08-05T02:44:34;7.68;;;2.10;;
789;SDS011;378;48.844;9.156;2022-08-05T02:47:04;5.60;;;2.08;;
789;SDS011;378;48.844;9.156;2022-08-05T02:49:33;6.47;;;2.13;;
789;SDS011;378;48.844;9.156;2022-08-05T02:52:02;6.75;;;2.65;;
789;SDS011;378;48.844;9.156;2022-08-05T02:54:31;9.15;;;2.08;;
789;SDS011;378;48.844;9.156;2022-08-05T02:56:59;15.13;;;2.58;;
789;SDS011;378;48.844;9.156;2022-08-05T02:59:27;4.82;;;2.28;;
789;SDS011;378;48.844;9.156;2022-08-05T03:01:57;9.95;;;2.58;;
789;SDS011;378;48.844;9.156;2022-08-05T03:04:25;8.40;;;2.30;;
789;SDS011;378;48.844;9.156;2022-08-05T03:06:53;9.88;;;2.30;;
789;SDS011;378;48.844;9.156;2022-08-05T03:09:20;10.15;;;2.35;;
789;SDS011;378;48.844;9.156;2022-08-05T03:11:47;12.38;;;2.65;;
789;SDS011;378;48.844;9.156;2022-08-05T03:14:15;17.90;;;2.53;;
789;SDS011;378;48.844;9.156;2022-08-05T03:16:42;6.50;;;2.83;;
789;SDS011;378;48.844;9.156;2022-08-05T03:19:10;9.00;;;2.45;;
789;SDS011;378;48.844;9.156;2022-08-05T03:21:37;8.30;;;2.67;;
789;SDS011;378;48.844;9.156;2022-08-05T03:24:04;11.73;;;2.70;;
789;SDS011;378;48.844;9.156;2022-08-05T03:26:32;7.38;;;2.90;;
789;SDS011;378;48.844;9.156;2022-08-05T03:28:59;5.22;;;2.33;;
789;SDS011;378;48.844;9.156;2022-08-05T03:31:26;12.88;;;2.47;;
789;SDS011;378;48.844;9.156;2022-08-05T03:33:54;6.25;;;2.45;;
789;SDS011;378;48.844;9.156;2022-08-05T03:36:23;7.97;;;2.78;;
789;SDS011;378;48.844;9.156;2022-08-05T03:38:50;10.32;;;2.67;;
789;SDS011;378;48.844;9.156;2022-08-05T03:41:17;7.47;;;2.90;;
789;SDS011;378;48.844;9.156;2022-08-05T03:43:44;7.25;;;2.40;;
789;SDS011;378;48.844;9.156;2022-08-05T03:46:11;16.15;;;2.75;;
789;SDS011;378;48.844;9.156;2022-08-05T03:48:38;10.98;;;2.70;;
789;SDS011;378;48.844;9.156;2022-08-05T03:51:07;8.95;;;2.80;;
789;SDS011;378;48.844;9.156;2022-08-05T03:53:40;8.73;;;2.38;;
789;SDS011;378;48.844;9.156;2022-08-05T03:56:14;7.68;;;2.95;;
789;SDS011;378;48.844;9.156;2022-08-05T03:58:47;8.43;;;2.60;;
789;SDS011;378;48.844;9.156;2022-08-05T04:01:16;14.77;;;2.90;;
789;SDS011;378;48.844;9.156;2022-08-05T04:03:45;15.38;;;2.40;;
789;SDS011;378;48.844;9.156;2022-08-05T04:06:14;7.10;;;2.58;;
789;SDS011;378;48.844;9.156;2022-08-05T04:08:44;10.80;;;2.95;;
789;SDS011;378;48.844;9.156;2022-08-05T04:11:12;7.75;;;2.65;;
789;SDS011;378;48.844;9.156;2022-08-05T04:13:39;7.10;;;2.85;;
789;SDS011;378;48.844;9.156;2022-08-05T04:16:07;9.98;;;3.05;;
789;SDS011;378;48.844;9.156;2022-08-05T04:18:34;6.85;;;2.22;;
789;SDS011;378;48.844;9.156;2022-08-05T04:21:02;8.50;;;2.78;;
789;SDS011;378;48.844;9.156;2022-08-05T04:23:30;8.82;;;2.55;;
789;SDS011;378;48.844;9.156;2022-08-05T04:26:00;8.60;;;3.28;;
789;SDS011;378;48.844;9.156;2022-08-05T04:28:28;10.82;;;2.75;;
789;SDS011;378;48.844;9.156;2022-08-05T04:30:55;6.72;;;2.92;;
789;SDS011;378;48.844;9.156;2022-08-05T04:33:22;16.75;;;3.10;;
789;SDS011;378;48.844;9.156;2022-08-05T04:35:48;8.07;;;2.60;;
789;SDS011;378;48.844;9.156;2022-08-05T04:38:15;11.00;;;2.95;;
789;SDS011;378;48.844;9.156;2022-08-05T04:40:42;5.55;;;2.63;;
789;SDS011;378;48.844;9.156;2022-08-05T04:43:10;6.43;;;2.60;;
789;SDS011;378;48.844;9.156;2022-08-05T04:45:37;15.10;;;2.97;;
789;SDS011;378;48.844;9.156;2022-08-05T04:48:05;9.85;;;2.67;;
789;SDS011;378;48.844;9.156;2022-08-05T04:50:37;14.93;;;3.15;;
789;SDS011;378;48.844;9.156;2022-08-05T04:53:05;10.88;;;2.95;;
789;SDS011;378;48.844;9.156;2022-08-05T04:55:33;8.35;;;3.25;;
789;SDS011;378;48.844;9.156;2022-08-05T04:58:00;14.63;;;3.05;;
789;SDS011;378;48.844;9.156;2022-08-05T05:00:29;10.18;;;2.80;;
789;SDS011;378;48.844;9.156;2022-08-05T05:02:56;14.30;;;3.13;;
789;SDS011;378;48.844;9.156;2022-08-05T05:05:23;8.10;;;3.35;;
789;SDS011;378;48.844;9.156;2022-08-05T05:07:49;13.52;;;3.63;;
789;SDS011;378;48.844;9.156;2022-08-05T05:10:16;10.85;;;3.35;;
789;SDS011;378;48.844;9.156;2022-08-05T05:12:43;12.80;;;3.20;;
789;SDS011;378;48.844;9.156;2022-08-05T05:15:10;8.43;;;3.40;;
789;SDS011;378;48.844;9.156;2022-08-05T05:17:39;14.23;;;4.20;;
789;SDS011;378;48.844;9.156;2022-08-05T05:20:08;10.05;;;2.97;;
789;SDS011;378;48.844;9.156;2022-08-05T05:22:36;8.55;;;3.20;;
789;SDS011;378;48.844;9.156;2022-08-05T05:25:03;10.07;;;3.10;;
789;SDS011;378;48.844;9.156;2022-08-05T05:27:32;11.90;;;3.33;;
789;SDS011;378;48.844;9.156;2022-08-05T05:30:00;11.85;;;2.92;;
789;SDS011;378;48.844;9.156;2022-08-05T05:32:27;9.90;;;3.10;;
789;SDS011;378;48.844;9.156;2022-08-05T05:34:55;15.73;;;3.28;;
789;SDS011;378;48.844;9.156;2022-08-05T05:37:22;6.78;;;2.97;;
789;SDS011;378;48.844;9.156;2022-08-05T05:39:49;16.35;;;3.22;;
789;SDS011;378;48.844;9.156;2022-08-05T05:42:16;11.48;;;2.88;;
789;SDS011;378;48.844;9.156;2022-08-05T05:44:43;7.95;;;3.22;;
789;SDS011;378;48.844;9.156;2022-08-05T05:47:09;12.52;;;3.22;;
789;SDS011;378;48.844;9.156;2022-08-05T05:49:36;8.98;;;3.50;;
789;SDS011;378;48.844;9.156;2022-08-05T05:52:05;9.98;;;3.45;;
789;SDS011;378;48.844;9.156;2022-08-05T05:54:32;10.93;;;2.85;;
789;SDS011;378;48.844;9.156;2022-08-05T05:56:59;7.97;;;2.85;;
789;SDS011;378;48.844;9.156;2022-08-05T05:59:25;9.90;;;2.97;;
789;SDS011;378;48.844;9.156;2022-08-05T06:01:52;7.88;;;3.03;;
789;SDS011;378;48.844;9.156;2022-08-05T06:04:19;11.55;;;2.72;;
789;SDS011;378;48.844;9.156;2022-08-05T06:06:46;11.27;;;3.20;;
789;SDS011;378;48.844;9.156;2022-08-05T06:09:15;12.32;;;2.80;;
789;SDS011;378;48.844;9.156;2022-08-05T06:11:42;9.65;;;2.83;;
789;SDS011;378;48.844;9.156;2022-08-05T06:14:09;10.73;;;3.50;;
789;SDS011;378;48.844;9.156;2022-08-05T06:16:36;10.35;;;3.03;;
789;SDS011;378;48.844;9.156;2022-08-05T06:19:03;8.35;;;2.83;;
789;SDS011;378;48.844;9.156;2022-08-05T06:21:30;6.28;;;2.45;;
789;SDS011;378;48.844;9.156;2022-08-05T06:23:57;13.27;;;2.90;;
789;SDS011;378;48.844;9.156;2022-08-05T06:26:25;7.50;;;2.90;;
789;SDS011;378;48.844;9.156;2022-08-05T06:28:52;8.38;;;2.70;;
789;SDS011;378;48.844;9.156;2022-08-05T06:31:19;6.55;;;2.65;;
789;SDS011;378;48.844;9.156;2022-08-05T06:33:46;6.85;;;2.50;;
789;SDS011;378;48.844;9.156;2022-08-05T06:36:13;7.55;;;2.47;;
789;SDS011;378;48.844;9.156;2022-08-05T06:38:40;4.28;;;2.13;;
789;SDS011;378;48.844;9.156;2022-08-05T06:41:07;10.10;;;2.70;;
789;SDS011;378;48.844;9.156;2022-08-05T06:43:35;5.80;;;2.53;;
789;SDS011;378;48.844;9.156;2022-08-05T06:46:02;5.53;;;2.60;;
789;SDS011;378;48.844;9.156;2022-08-05T06:48:29;7.25;;;2.28;;
789;SDS011;378;48.844;9.156;2022-08-05T06:50:58;4.43;;;2.20;;
789;SDS011;378;48.844;9.156;2022-08-05T06:53:25;7.32;;;2.10;;
789;SDS011;378;48.844;9.156;2022-08-05T06:55:52;6.35;;;2.63;;
789;SDS011;378;48.844;9.156;2022-08-05T06:58:19;3.33;;;2.08;;
789;SDS011;378;48.844;9.156;2022-08-05T07:00:47;4.10;;;2.30;;
789;SDS011;378;48.844;9.156;2022-08-05T07:03:14;5.18;;;2.55;;
789;SDS011;378;48.844;9.156;2022-08-05T07:05:41;10.02;;;2.60;;
789;SDS011;378;48.844;9.156;2022-08-05T07:08:08;13.10;;;2.88;;
789;SDS011;378;48.844;9.156;2022-08-05T07:10:35;5.38;;;2.30;;
789;SDS011;378;48.844;9.156;2022-08-05T07:13:02;5.93;;;2.33;;
789;SDS011;378;48.844;9.156;2022-08-05T07:15:48;4.07;;;2.40;;
789;SDS011;378;48.844;9.156;2022-08-05T07:18:32;5.47;;;2.33;;
789;SDS011;378;48.844;9.156;2022-08-05T07:20:59;5.38;;;2.30;;
789;SDS011;378;48.844;9.156;2022-08-05T07:23:27;6.82;;;2.40;;
789;SDS011;378;48.844;9.156;2022-08-05T07:25:54;3.60;;;2.15;;
789;SDS011;378;48.844;9.156;2022-08-05T07:28:21;5.53;;;2.30;;
789;SDS011;378;48.844;9.156;2022-08-05T07:30:50;4.50;;;2.05;;
789;SDS011;378;48.844;9.156;2022-08-05T07:33:17;4.30;;;2.15;;
789;SDS011;378;48.844;9.156;2022-08-05T07:35:45;4.28;;;2.38;;
789;SDS011;378;48.844;9.156;2022-08-05T07:38:13;3.90;;;2.10;;
789;SDS011;378;48.844;9.156;2022-08-05T07:40:40;5.10;;;2.22;;
789;SDS011;378;48.844;9.156;2022-08-05T07:43:07;6.40;;;2.10;;
789;SDS011;378;48.844;9.156;2022-08-05T07:45:38;4.53;;;2.15;;
789;SDS011;378;48.844;9.156;2022-08-05T07:48:07;5.05;;;2.10;;
789;SDS011;378;48.844;9.156;2022-08-05T07:50:34;3.95;;;1.83;;
789;SDS011;378;48.844;9.156;2022-08-05T07:53:01;8.40;;;1.90;;
789;SDS011;378;48.844;9.156;2022-08-05T07:55:29;6.97;;;1.80;;
789;SDS011;378;48.844;9.156;2022-08-05T07:57:56;4.45;;;1.52;;
789;SDS011;378;48.844;9.156;2022-08-05T08:00:23;3.25;;;1.63;;
789;SDS011;378;48.844;9.156;2022-08-05T08:02:50;7.50;;;1.60;;
789;SDS011;378;48.844;9.156;2022-08-05T08:05:18;4.38;;;1.65;;
789;SDS011;378;48.844;9.156;2022-08-05T08:07:45;4.00;;;1.25;;
789;SDS011;378;48.844;9.156;2022-08-05T08:10:13;3.13;;;1.50;;
789;SDS011;378;48.844;9.156;2022-08-05T08:12:39;3.45;;;1.60;;
789;SDS011;378;48.844;9.156;2022-08-05T08:15:07;3.70;;;1.40;;
789;SDS011;378;48.844;9.156;2022-08-05T08:17:35;2.13;;;1.60;;
789;SDS011;378;48.844;9.156;2022-08-05T08:20:02;3.78;;;1.80;;
789;SDS011;378;48.844;9.156;2022-08-05T08:22:32;4.05;;;1.60;;
789;SDS011;378;48.844;9.156;2022-08-05T08:24:59;3.35;;;1.40;;
789;SDS011;378;48.844;9.156;2022-08-05T08:27:26;5.15;;;1.85;;
789;SDS011;378;48.844;9.156;2022-08-05T08:29:53;3.70;;;1.42;;
789;SDS011;378;48.844;9.156;2022-08-05T08:32:19;4.65;;;1.63;;
789;SDS011;378;48.844;9.156;2022-08-05T08:34:46;7.28;;;1.50;;
789;SDS011;378;48.844;9.156;2022-08-05T08:37:13;2.45;;;1.58;;
789;SDS011;378;48.844;9.156;2022-08-05T08:39:42;2.60;;;1.35;;
789;SDS011;378;48.844;9.156;2022-08-05T08:42:09;5.38;;;1.30;;
789;SDS011;378;48.844;9.156;2022-08-05T08:44:36;3.72;;;1.30;;
789;SDS011;378;48.844;9.156;2022-08-05T08:47:05;4.47;;;1.40;;
789;SDS011;378;48.844;9.156;2022-08-05T08:49:33;2.72;;;1.50;;
789;SDS011;378;48.844;9.156;2022-08-05T08:52:04;4.45;;;1.60;;
789;SDS011;378;48.844;9.156;2022-08-05T08:54:37;3.35;;;1.20;;
789;SDS011;378;48.844;9.156;2022-08-05T08:57:05;4.68;;;1.45;;
789;SDS011;378;48.844;9.156;2022-08-05T08:59:33;2.15;;;1.40;;
789;SDS011;378;48.844;9.156;2022-08-05T09:02:00;3.45;;;1.42;;
789;SDS011;378;48.844;9.156;2022-08-05T09:04:32;5.22;;;1.42;;
789;SDS011;378;48.844;9.156;2022-08-05T09:07:02;4.20;;;1.58;;
789;SDS011;378;48.844;9.156;2022-08-05T09:09:30;3.28;;;1.50;;
789;SDS011;378;48.844;9.156;2022-08-05T09:11:57;5.80;;;1.50;;
789;SDS011;378;48.844;9.156;2022-08-05T09:14:25;4.50;;;1.23;;
789;SDS011;378;48.844;9.156;2022-08-05T09:16:52;4.72;;;1.50;;
789;SDS011;378;48.844;9.156;2022-08-05T09:19:19;2.38;;;1.30;;
789;SDS011;378;48.844;9.156;2022-08-05T09:21:46;2.53;;;1.52;;
789;SDS011;378;48.844;9.156;2022-08-05T09:24:13;1.52;;;1.20;;
789;SDS011;378;48.844;9.156;2022-08-05T09:26:41;4.43;;;1.40;;
789;SDS011;378;48.844;9.156;2022-08-05T09:29:13;4.78;;;1.33;;
789;SDS011;378;48.844;9.156;2022-08-05T09:31:41;3.10;;;1.40;;
789;SDS011;378;48.844;9.156;2022-08-05T09:34:09;2.45;;;1.30;;
789;SDS011;378;48.844;9.156;2022-08-05T09:36:41;5.85;;;1.52;;
789;SDS011;378;48.844;9.156;2022-08-05T09:39:10;3.55;;;1.48;;
789;SDS011;378;48.844;9.156;2022-08-05T09:44:37;1.88;;;1.20;;
789;SDS011;378;48.844;9.156;2022-08-05T09:47:08;4.20;;;1.50;;
789;SDS011;378;48.844;9.156;2022-08-05T09:49:40;3.08;;;1.20;;
789;SDS011;378;48.844;9.156;2022-08-05T09:52:15;4.50;;;1.52;;
789;SDS011;378;48.844;9.156;2022-08-05T09:54:50;3.65;;;1.48;;
789;SDS011;378;48.844;9.156;2022-08-05T09:57:28;2.60;;;1.35;;
789;SDS011;378;48.844;9.156;2022-08-05T09:59:59;2.53;;;1.20;;
789;SDS011;378;48.844;9.156;2022-08-05T10:02:35;1.85;;;1.45;;
789;SDS011;378;48.844;9.156;2022-08-05T10:05:05;3.05;;;1.50;;
789;SDS011;378;48.844;9.156;2022-08-05T10:07:43;2.30;;;1.27;;
789;SDS011;378;48.844;9.156;2022-08-05T10:10:11;5.78;;;1.40;;
789;SDS011;378;48.844;9.156;2022-08-05T10:12:39;1.50;;;1.15;;
789;SDS011;378;48.844;9.156;2022-08-05T10:15:13;2.25;;;1.23;;
789;SDS011;378;48.844;9.156;2022-08-05T10:17:43;2.35;;;1.30;;
789;SDS011;378;48.844;9.156;2022-08-05T10:20:10;1.73;;;1.40;;
789;SDS011;378;48.844;9.156;2022-08-05T10:22:38;1.55;;;1.20;;
789;SDS011;378;48.844;9.156;2022-08-05T10:25:06;3.97;;;1.30;;
789;SDS011;378;48.844;9.156;2022-08-05T10:27:34;2.35;;;1.10;;
789;SDS011;378;48.844;9.156;2022-08-05T10:30:01;4.10;;;1.20;;
789;SDS011;378;48.844;9.156;2022-08-05T10:32:30;1.73;;;0.98;;
789;SDS011;378;48.844;9.156;2022-08-05T10:34:59;2.97;;;1.10;;
789;SDS011;378;48.844;9.156;2022-08-05T10:37:26;2.30;;;1.30;;
789;SDS011;378;48.844;9.156;2022-08-05T10:39:56;2.45;;;1.42;;
789;SDS011;378;48.844;9.156;2022-08-05T10:42:28;3.55;;;1.10;;
789;SDS011;378;48.844;9.156;2022-08-05T10:45:00;3.70;;;1.50;;
789;SDS011;378;48.844;9.156;2022-08-05T10:47:29;2.17;;;1.05;;
789;SDS011;378;48.844;9.156;2022-08-05T10:50:00;3.58;;;1.17;;
789;SDS011;378;48.844;9.156;2022-08-05T10:52:37;2.20;;;1.00;;
789;SDS011;378;48.844;9.156;2022-08-05T10:55:06;5.20;;;1.30;;
789;SDS011;378;48.844;9.156;2022-08-05T10:57:35;2.85;;;1.40;;
789;SDS011;378;48.844;9.156;2022-08-05T11:00:15;1.48;;;1.38;;
789;SDS011;378;48.844;9.156;2022-08-05T11:05:36;1.80;;;1.15;;
789;SDS011;378;48.844;9.156;2022-08-05T11:08:05;3.70;;;1.42;;
789;SDS011;378;48.844;9.156;2022-08-05T11:10:33;3.92;;;1.40;;
789;SDS011;378;48.844;9.156;2022-08-05T11:13:03;2.13;;;1.35;;
789;SDS011;378;48.844;9.156;2022-08-05T11:15:33;4.45;;;1.52;;
789;SDS011;378;48.844;9.156;2022-08-05T11:18:07;2.03;;;1.30;;
789;SDS011;378;48.844;9.156;2022-08-05T11:20:52;1.73;;;1.25;;
789;SDS011;378;48.844;9.156;2022-08-05T11:26:09;2.08;;;1.40;;
789;SDS011;378;48.844;9.156;2022-08-05T11:28:38;2.85;;;1.13;;
789;SDS011;378;48.844;9.156;2022-08-05T11:31:20;3.08;;;1.40;;
789;SDS011;378;48.844;9.156;2022-08-05T11:33:59;4.18;;;1.30;;
789;SDS011;378;48.844;9.156;2022-08-05T11:36:40;1.67;;;1.42;;
789;SDS011;378;48.844;9.156;2022-08-05T11:39:10;1.45;;;1.25;;
789;SDS011;378;48.844;9.156;2022-08-05T11:41:39;5.40;;;1.30;;
789;SDS011;378;48.844;9.156;2022-08-05T11:44:07;1.77;;;1.30;;
789;SDS011;378;48.844;9.156;2022-08-05T11:46:37;4.82;;;1.23;;
789;SDS011;378;48.844;9.156;2022-08-05T11:49:06;5.07;;;1.23;;
789;SDS011;378;48.844;9.156;2022-08-05T11:51:34;2.13;;;1.38;;
789;SDS011;378;48.844;9.156;2022-08-05T11:54:02;2.88;;;1.10;;
789;SDS011;378;48.844;9.156;2022-08-05T11:56:42;2.17;;;1.30;;
789;SDS011;378;48.844;9.156;2022-08-05T11:59:14;1.95;;;1.30;;
789;SDS011;378;48.844;9.156;2022-08-05T12:01:51;2.20;;;1.33;;
789;SDS011;378;48.844;9.156;2022-08-05T12:04:19;3.08;;;1.30;;
789;SDS011;378;48.844;9.156;2022-08-05T12:06:46;2.08;;;1.20;;
789;SDS011;378;48.844;9.156;2022-08-05T12:09:16;2.17;;;1.40;;
789;SDS011;378;48.844;9.156;2022-08-05T12:11:50;3.35;;;1.50;;
789;SDS011;378;48.844;9.156;2022-08-05T12:14:17;2.60;;;1.20;;
789;SDS011;378;48.844;9.156;2022-08-05T12:16:44;1.45;;;1.35;;
789;SDS011;378;48.844;9.156;2022-08-05T12:19:12;5.25;;;1.35;;
789;SDS011;378;48.844;9.156;2022-08-05T12:21:42;3.47;;;1.30;;
789;SDS011;378;48.844;9.156;2022-08-05T12:24:11;3.83;;;1.60;;
789;SDS011;378;48.844;9.156;2022-08-05T12:26:42;5.00;;;1.23;;
789;SDS011;378;48.844;9.156;2022-08-05T12:29:11;1.42;;;1.30;;
789;SDS011;378;48.844;9.156;2022-08-05T12:31:39;1.65;;;1.30;;
789;SDS011;378;48.844;9.156;2022-08-05T12:34:09;5.18;;;1.50;;
789;SDS011;378;48.844;9.156;2022-08-05T12:36:37;3.20;;;1.38;;
789;SDS011;378;48.844;9.156;2022-08-05T12:39:04;2.85;;;1.30;;
789;SDS011;378;48.844;9.156;2022-08-05T12:41:32;2.67;;;1.40;;
789;SDS011;378;48.844;9.156;2022-08-05T12:44:03;2.58;;;1.30;;
789;SDS011;378;48.844;9.156;2022-08-05T12:46:32;2.35;;;1.45;;
789;SDS011;378;48.844;9.156;2022-08-05T12:49:00;3.00;;;1.20;;
789;SDS011;378;48.844;9.156;2022-08-05T12:51:41;4.00;;;1.38;;
789;SDS011;378;48.844;9.156;2022-08-05T12:54:09;4.03;;;1.40;;
789;SDS011;378;48.844;9.156;2022-08-05T12:56:39;3.25;;;1.40;;
789;SDS011;378;48.844;9.156;2022-08-05T12:59:11;1.73;;;1.27;;
789;SDS011;378;48.844;9.156;2022-08-05T13:01:39;4.75;;;1.23;;
789;SDS011;378;48.844;9.156;2022-08-05T13:04:07;1.95;;;1.35;;
789;SDS011;378;48.844;9.156;2022-08-05T13:06:41;4.93;;;1.50;;
789;SDS011;378;48.844;9.156;2022-08-05T13:09:11;2.63;;;1.38;;
789;SDS011;378;48.844;9.156;2022-08-05T13:11:40;2.40;;;1.15;;
789;SDS011;378;48.844;9.156;2022-08-05T13:14:17;3.60;;;1.40;;
789;SDS011;378;48.844;9.156;2022-08-05T13:16:46;5.03;;;1.80;;
789;SDS011;378;48.844;9.156;2022-08-05T13:19:14;6.30;;;1.63;;
789;SDS011;378;48.844;9.156;2022-08-05T13:21:44;2.80;;;1.63;;
789;SDS011;378;48.844;9.156;2022-08-05T13:24:12;3.28;;;1.60;;
789;SDS011;378;48.844;9.156;2022-08-05T13:26:40;6.50;;;1.30;;
789;SDS011;378;48.844;9.156;2022-08-05T13:29:08;2.33;;;1.50;;
789;SDS011;378;48.844;9.156;2022-08-05T13:31:36;4.97;;;1.45;;
789;SDS011;378;48.844;9.156;2022-08-05T13:34:03;3.38;;;1.38;;
789;SDS011;378;48.844;9.156;2022-08-05T13:36:30;1.60;;;1.45;;
789;SDS011;378;48.844;9.156;2022-08-05T13:38:58;3.13;;;1.10;;
789;SDS011;378;48.844;9.156;2022-08-05T13:41:25;5.63;;;1.40;;
789;SDS011;378;48.844;9.156;2022-08-05T13:43:52;3.95;;;1.40;;
789;SDS011;378;48.844;9.156;2022-08-05T13:46:19;3.75;;;1.63;;
789;SDS011;378;48.844;9.156;2022-08-05T13:48:48;3.47;;;1.50;;
789;SDS011;378;48.844;9.156;2022-08-05T13:51:15;4.47;;;1.30;;
789;SDS011;378;48.844;9.156;2022-08-05T13:53:50;1.95;;;1.30;;
789;SDS011;378;48.844;9.156;2022-08-05T13:56:17;2.00;;;1.40;;
789;SDS011;378;48.844;9.156;2022-08-05T13:58:44;5.78;;;1.58;;
789;SDS011;378;48.844;9.156;2022-08-05T14:01:11;3.08;;;1.40;;
789;SDS011;378;48.844;9.156;2022-08-05T14:03:38;3.90;;;1.40;;
789;SDS011;378;48.844;9.156;2022-08-05T14:06:06;3.90;;;1.95;;
789;SDS011;378;48.844;9.156;2022-08-05T14:08:33;2.28;;;1.60;;
789;SDS011;378;48.844;9.156;2022-08-05T14:11:00;4.15;;;1.60;;
789;SDS011;378;48.844;9.156;2022-08-05T14:13:27;4.20;;;1.58;;
789;SDS011;378;48.844;9.156;2022-08-05T14:15:53;4.35;;;1.70;;
789;SDS011;378;48.844;9.156;2022-08-05T14:18:20;4.45;;;1.48;;
789;SDS011;378;48.844;9.156;2022-08-05T14:20:47;5.05;;;1.55;;
789;SDS011;378;48.844;9.156;2022-08-05T14:23:16;2.83;;;1.23;;
789;SDS011;378;48.844;9.156;2022-08-05T14:25:43;3.90;;;1.40;;
789;SDS011;378;48.844;9.156;2022-08-05T14:28:09;4.35;;;1.58;;
789;SDS011;378;48.844;9.156;2022-08-05T14:30:36;3.17;;;1.30;;
789;SDS011;378;48.844;9.156;2022-08-05T14:33:03;3.08;;;1.60;;
789;SDS011;378;48.844;9.156;2022-08-05T14:35:30;4.45;;;1.40;;
789;SDS011;378;48.844;9.156;2022-08-05T14:37:57;2.42;;;1.40;;
789;SDS011;378;48.844;9.156;2022-08-05T14:40:25;7.88;;;1.80;;
789;SDS011;378;48.844;9.156;2022-08-05T14:42:52;8.63;;;1.65;;
789;SDS011;378;48.844;9.156;2022-08-05T14:45:19;5.68;;;1.70;;
789;SDS011;378;48.844;9.156;2022-08-05T14:47:45;6.13;;;1.60;;
789;SDS011;378;48.844;9.156;2022-08-05T14:50:12;3.03;;;1.52;;
789;SDS011;378;48.844;9.156;2022-08-05T14:52:39;4.70;;;1.67;;
789;SDS011;378;48.844;9.156;2022-08-05T14:55:06;4.30;;;1.83;;
789;SDS011;378;48.844;9.156;2022-08-05T14:57:36;4.22;;;2.00;;
789;SDS011;378;48.844;9.156;2022-08-05T15:00:03;3.88;;;1.58;;
789;SDS011;378;48.844;9.156;2022-08-05T15:02:30;4.55;;;1.98;;
789;SDS011;378;48.844;9.156;2022-08-05T15:04:57;5.50;;;1.83;;
789;SDS011;378;48.844;9.156;2022-08-05T15:07:24;8.50;;;2.10;;
789;SDS011;378;48.844;9.156;2022-08-05T15:09:51;5.60;;;1.98;;
789;SDS011;378;48.844;9.156;2022-08-05T15:12:18;3.72;;;1.80;;
789;SDS011;378;48.844;9.156;2022-08-05T15:14:46;4.70;;;2.00;;
789;SDS011;378;48.844;9.156;2022-08-05T15:17:13;8.25;;;1.90;;
789;SDS011;378;48.844;9.156;2022-08-05T15:19:40;4.55;;;1.85;;
789;SDS011;378;48.844;9.156;2022-08-05T15:22:07;4.55;;;2.15;;
789;SDS011;378;48.844;9.156;2022-08-05T15:24:33;8.57;;;2.00;;
789;SDS011;378;48.844;9.156;2022-08-05T15:27:00;6.50;;;1.95;;
789;SDS011;378;48.844;9.156;2022-08-05T15:29:27;11.18;;;1.90;;
789;SDS011;378;48.844;9.156;2022-08-05T15:31:56;2.72;;;1.98;;
789;SDS011;378;48.844;9.156;2022-08-05T15:34:23;3.72;;;2.00;;
789;SDS011;378;48.844;9.156;2022-08-05T15:36:50;3.67;;;1.73;;
789;SDS011;378;48.844;9.156;2022-08-05T15:39:17;3.28;;;1.90;;
789;SDS011;378;48.844;9.156;2022-08-05T15:41:43;5.32;;;2.10;;
789;SDS011;378;48.844;9.156;2022-08-05T15:44:10;5.25;;;2.00;;
789;SDS011;378;48.844;9.156;2022-08-05T15:46:37;5.63;;;2.20;;
789;SDS011;378;48.844;9.156;2022-08-05T15:49:06;3.30;;;2.00;;
789;SDS011;378;48.844;9.156;2022-08-05T15:51:33;5.45;;;2.00;;
789;SDS011;378;48.844;9.156;2022-08-05T15:53:59;3.15;;;1.83;;
789;SDS011;378;48.844;9.156;2022-08-05T15:56:26;4.28;;;1.80;;
789;SDS011;378;48.844;9.156;2022-08-05T15:58:53;4.60;;;2.00;;
789;SDS011;378;48.844;9.156;2022-08-05T16:01:20;4.88;;;2.40;;